Time;durP1;ratioP1;P1;durP2;ratioP2;P2;SDS_P1;SDS_P2;PMS_P1;PMS_P2;Temp;Humidity;BMP_temperature;BMP_pressure;BME280_temperature;BME280_humidity;BME280_pressure;Samples;Min_cycle;Max_cycle;Signal;HPM_P1;HPM_P2
2022/01/23 00:01:14;;;;;;;43.27;24.03;;;6.30;98.50;;;;;;5040958;28;20997;-47
2022/01/23 00:03:46;;;;;;;40.90;21.90;;;6.30;98.60;;;;;;5039150;28;20522;-50
2022/01/23 00:06:14;;;;;;;47.53;22.70;;;6.30;98.70;;;;;;5033797;28;20483;-48
2022/01/23 00:08:40;;;;;;;43.63;22.13;;;6.40;98.80;;;;;;5039026;28;20476;-47
2022/01/23 00:11:07;;;;;;;43.33;23.20;;;6.50;98.70;;;;;;5038535;28;20904;-47
2022/01/23 00:17:13;;;;;;;45.30;22.70;;;6.50;98.50;;;;;;5039841;28;20492;-47
2022/01/23 00:19:07;;;;;;;39.60;22.30;;;6.50;98.50;;;;;;5038008;28;20491;-47
2022/01/23 00:21:36;;;;;;;39.20;22.43;;;6.60;98.40;;;;;;5036436;28;21006;-47
2022/01/23 00:32:16;;;;;;;38.13;22.83;;;6.50;98.50;;;;;;5008921;28;21128;-47
2022/01/23 00:34:44;;;;;;;47.23;25.47;;;6.50;98.50;;;;;;5014845;28;20790;-47
2022/01/23 00:37:11;;;;;;;48.93;24.17;;;6.60;98.40;;;;;;5034195;28;20578;-47
2022/01/23 00:39:37;;;;;;;45.73;24.13;;;6.60;98.30;;;;;;5033005;28;20559;-47
2022/01/23 00:42:05;;;;;;;53.20;26.60;;;6.60;98.20;;;;;;5027443;28;21457;-47
2022/01/23 00:44:33;;;;;;;50.67;24.57;;;6.40;98.30;;;;;;5032084;28;20538;-47
2022/01/23 00:47:04;;;;;;;46.13;23.07;;;6.30;98.50;;;;;;5035479;28;20603;-47
2022/01/23 00:49:30;;;;;;;43.73;25.43;;;6.20;98.50;;;;;;5041664;28;21020;-48
2022/01/23 00:51:58;;;;;;;51.97;27.37;;;6.10;98.60;;;;;;5036029;28;20838;-47
2022/01/23 00:54:26;;;;;;;45.13;22.70;;;6.10;98.80;;;;;;5036564;28;20498;-47
2022/01/23 00:56:54;;;;;;;53.17;24.97;;;6.10;98.90;;;;;;5039820;28;20514;-47
2022/01/23 00:59:20;;;;;;;48.73;25.13;;;6.20;98.90;;;;;;5040266;28;20489;-47
2022/01/23 01:01:47;;;;;;;65.00;24.30;;;6.20;98.70;;;;;;5032715;28;20485;-47
2022/01/23 01:04:14;;;;;;;37.90;23.73;;;6.20;98.80;;;;;;5023885;28;20485;-47
2022/01/23 01:06:41;;;;;;;46.73;27.07;;;6.10;98.60;;;;;;5030219;28;20482;-47
2022/01/23 01:09:11;;;;;;;38.47;22.47;;;6.10;98.80;;;;;;5034429;28;20490;-47
2022/01/23 01:14:57;;;;;;;45.93;21.63;;;5.90;98.90;;;;;;5021538;28;20824;-47
2022/01/23 01:17:35;;;;;;;43.60;22.70;;;5.90;99.00;;;;;;5031231;28;20493;-47
2022/01/23 01:31:25;;;;;;;44.33;22.00;;;5.80;99.10;;;;;;5034935;28;21176;-47
2022/01/23 01:33:56;;;;;;;41.63;21.30;;;5.90;99.20;;;;;;5042772;28;20581;-48
2022/01/23 01:36:29;;;;;;;42.57;21.33;;;5.80;99.20;;;;;;5058953;28;20480;-47
2022/01/23 01:38:56;;;;;;;47.53;24.93;;;5.80;99.30;;;;;;5062343;28;20483;-47
2022/01/23 01:41:25;;;;;;;48.23;24.23;;;5.80;99.30;;;;;;5052688;28;20980;-47
2022/01/23 01:43:54;;;;;;;50.97;24.77;;;5.70;99.20;;;;;;5061105;28;20483;-47
2022/01/23 01:46:21;;;;;;;48.80;22.07;;;5.80;99.40;;;;;;5062973;28;21294;-48
2022/01/23 01:48:48;;;;;;;46.73;25.47;;;5.80;99.40;;;;;;5058397;28;20489;-47
2022/01/23 01:51:17;;;;;;;54.67;25.70;;;5.80;99.30;;;;;;5057396;28;20925;-47
2022/01/23 01:53:50;;;;;;;50.27;24.03;;;5.80;99.40;;;;;;5055279;28;20471;-47
2022/01/23 01:56:16;;;;;;;49.87;23.77;;;5.80;99.30;;;;;;5056035;28;20479;-47
2022/01/23 01:58:57;;;;;;;56.23;22.50;;;5.70;99.40;;;;;;5066519;28;21146;-47
2022/01/23 02:09:41;;;;;;;39.00;21.47;;;5.70;99.30;;;;;;5048901;28;20559;-49
2022/01/23 02:12:29;;;;;;;67.23;25.07;;;5.70;99.40;;;;;;5048077;28;20481;-45
2022/01/23 02:15:25;;;;;;;43.43;24.37;;;5.70;99.60;;;;;;5063402;28;20845;-46
2022/01/23 02:17:59;;;;;;;38.50;22.13;;;5.80;99.40;;;;;;5056986;28;20478;-46
2022/01/23 02:23:28;;;;;;;42.00;23.10;;;5.90;99.20;;;;;;5053076;28;20705;-46
2022/01/23 02:50:45;;;;;;;43.10;24.27;;;5.70;99.30;;;;;;5039067;28;20541;-47
2022/01/23 02:53:35;;;;;;;51.33;22.93;;;5.80;99.30;;;;;;5031206;28;20831;-47
2022/01/23 02:56:03;;;;;;;59.43;25.80;;;5.80;99.20;;;;;;5039298;28;20468;-47
2022/01/23 02:58:36;;;;;;;45.43;20.83;;;5.90;99.30;;;;;;5039279;28;20480;-47
2022/01/23 03:01:14;;;;;;;52.87;25.87;;;5.90;99.10;;;;;;5036057;28;21005;-47
2022/01/23 03:03:45;;;;;;;53.07;21.40;;;6.00;99.00;;;;;;5036795;28;20547;-47
2022/01/23 03:06:34;;;;;;;41.07;22.60;;;6.00;98.90;;;;;;5026037;28;20487;-47
2022/01/23 03:12:06;;;;;;;46.13;24.00;;;5.80;99.10;;;;;;5005306;28;20558;-48
2022/01/23 03:14:47;;;;;;;46.33;22.20;;;5.90;99.20;;;;;;5031713;28;20490;-46
2022/01/23 03:25:56;;;;;;;37.03;22.63;;;;;;;;;;5015009;28;20479;-46
2022/01/23 03:28:35;;;;;;;39.40;20.33;;;6.00;99.00;;;;;;5053201;28;20491;-45
2022/01/23 03:31:08;;;;;;;45.20;22.10;;;5.90;98.80;;;;;;5052220;28;21253;-47
2022/01/23 03:33:37;;;;;;;43.60;22.33;;;6.00;99.00;;;;;;5052984;28;20588;-46
2022/01/23 03:36:04;;;;;;;53.27;24.40;;;6.10;98.90;;;;;;5057400;28;21075;-46
2022/01/23 03:38:32;;;;;;;42.47;21.10;;;6.10;98.90;;;;;;5058888;28;20477;-46
2022/01/23 03:41:00;;;;;;;38.77;23.83;;;6.10;98.80;;;;;;5051108;28;20490;-46
2022/01/23 03:43:29;;;;;;;42.93;20.67;;;6.10;98.80;;;;;;5052620;28;20968;-46
2022/01/23 03:46:19;;;;;;;48.30;24.50;;;6.20;98.80;;;;;;5059048;28;20467;-46
2022/01/23 03:51:29;;;;;;;51.37;26.10;;;6.20;98.70;;;;;;5049730;28;20631;-46
2022/01/23 03:53:56;;;;;;;73.10;27.30;;;6.20;98.60;;;;;;5061680;28;20479;-46
2022/01/23 03:56:24;;;;;;;54.27;24.20;;;6.20;98.60;;;;;;5058085;28;20524;-46
2022/01/23 03:58:51;;;;;;;43.07;24.90;;;6.20;98.50;;;;;;5056205;28;20489;-46
2022/01/23 04:01:18;;;;;;;49.83;23.90;;;6.20;98.70;;;;;;5054199;28;20479;-45
2022/01/23 04:03:45;;;;;;;44.17;23.00;;;6.20;98.70;;;;;;5052225;28;20480;-46
2022/01/23 04:06:11;;;;;;;32.13;20.43;;;6.20;98.60;;;;;;5062310;28;20475;-46
2022/01/23 04:08:38;;;;;;;54.47;20.50;;;6.20;98.50;;;;;;5056014;28;20483;-46
2022/01/23 04:11:05;;;;;;;38.80;21.30;;;6.00;98.50;;;;;;5054817;28;20866;-46
2022/01/23 04:13:43;;;;;;;43.47;22.27;;;5.90;98.70;;;;;;5056512;28;20515;-46
2022/01/23 04:16:12;;;;;;;46.93;20.00;;;5.80;98.90;;;;;;5054699;28;20484;-46
2022/01/23 04:19:08;;;;;;;39.37;22.30;;;5.70;99.10;;;;;;5048439;28;20462;-46
2022/01/23 04:32:57;;;;;;;37.53;20.10;;;5.70;99.10;;;;;;5035943;28;21212;-46
2022/01/23 04:35:45;;;;;;;44.67;23.50;;;5.80;99.30;;;;;;5012673;28;20480;-46
2022/01/23 04:59:56;;;;;;;91.40;27.03;;;;;;;;;;5022226;28;20463;-46
2022/01/23 05:02:55;;;;;;;107.50;26.70;;;;;;;;;;5026786;28;20511;-46
2022/01/23 05:05:18;;;;;;;306.67;54.40;;;;;;;;;;5033145;28;20505;-47
2022/01/23 05:07:47;;;;;;;118.17;39.93;;;;;;;;;;5028112;28;20490;-46
2022/01/23 05:10:14;;;;;;;325.30;59.53;;;;;;;;;;5032944;28;20473;-46
2022/01/23 05:12:41;;;;;;;164.20;31.37;;;;;;;;;;5029447;28;20555;-46
2022/01/23 05:15:11;;;;;;;87.17;29.20;;;6.10;98.60;;;;;;5045483;28;20485;-46
2022/01/23 05:17:39;;;;;;;46.27;24.87;;;6.10;98.80;;;;;;5021636;28;20574;-46
2022/01/23 05:20:07;;;;;;;54.93;25.57;;;5.90;98.70;;;;;;5060274;28;20531;-46
2022/01/23 05:22:38;;;;;;;51.73;21.93;;;5.90;98.70;;;;;;5032159;28;20487;-46
2022/01/23 05:25:12;;;;;;;81.27;28.00;;;5.70;98.90;;;;;;5068259;28;20494;-46
2022/01/23 05:27:39;;;;;;;42.90;21.10;;;5.60;99.20;;;;;;5055847;28;20982;-46
2022/01/23 05:30:07;;;;;;;48.50;25.03;;;5.50;99.10;;;;;;5061736;28;20479;-46
2022/01/23 05:32:38;;;;;;;34.57;17.90;;;5.50;99.20;;;;;;5049342;28;20735;-46
2022/01/23 05:35:09;;;;;;;45.83;25.13;;;5.60;99.50;;;;;;5055404;28;20473;-46
2022/01/23 05:37:36;;;;;;;39.20;22.40;;;5.70;99.60;;;;;;5052398;28;21166;-46
2022/01/23 05:40:05;;;;;;;56.93;25.43;;;5.70;99.20;;;;;;5055334;28;20490;-46
2022/01/23 05:42:32;;;;;;;38.10;20.23;;;5.70;99.40;;;;;;5053760;28;20938;-46
2022/01/23 05:44:59;;;;;;;38.47;21.10;;;5.80;99.40;;;;;;5054938;28;22192;-46
2022/01/23 05:47:25;;;;;;;45.60;22.10;;;5.80;99.30;;;;;;5055436;28;20484;-46
2022/01/23 05:49:52;;;;;;;42.00;22.60;;;5.80;99.10;;;;;;5048143;28;20490;-46
2022/01/23 05:52:20;;;;;;;49.00;21.57;;;5.80;99.20;;;;;;5063654;28;20522;-46
2022/01/23 05:54:47;;;;;;;44.37;20.53;;;5.90;99.10;;;;;;5046146;28;20487;-45
2022/01/23 05:57:14;;;;;;;37.50;20.27;;;5.90;99.00;;;;;;5065552;28;20480;-46
2022/01/23 05:59:40;;;;;;;34.60;19.27;;;6.00;99.00;;;;;;5047238;28;20637;-46
2022/01/23 06:02:08;;;;;;;42.97;18.77;;;6.00;98.80;;;;;;5053311;28;20543;-46
2022/01/23 06:04:35;;;;;;;37.23;20.40;;;5.90;98.90;;;;;;5046636;28;20489;-46
2022/01/23 06:07:03;;;;;;;45.37;21.57;;;6.00;99.00;;;;;;5038430;28;20496;-46
2022/01/23 06:09:31;;;;;;;43.57;19.07;;;5.90;98.80;;;;;;5038855;28;20953;-47
2022/01/23 06:11:58;;;;;;;34.90;19.47;;;5.90;99.10;;;;;;5026098;28;20550;-46
2022/01/23 06:14:26;;;;;;;38.57;20.23;;;5.90;99.10;;;;;;5051827;28;20481;-46
2022/01/23 06:16:53;;;;;;;39.97;20.93;;;6.00;98.90;;;;;;5036038;28;20483;-46
2022/01/23 06:19:20;;;;;;;45.97;20.30;;;6.00;98.80;;;;;;5031620;28;20492;-46
2022/01/23 06:21:46;;;;;;;32.40;18.43;;;5.90;98.70;;;;;;5026361;28;20978;-46
2022/01/23 06:24:22;;;;;;;42.40;20.13;;;6.00;98.90;;;;;;5022725;28;20493;-46
2022/01/23 06:26:53;;;;;;;35.23;18.53;;;6.00;98.80;;;;;;5038495;28;20550;-46
2022/01/23 06:29:21;;;;;;;45.97;20.07;;;5.90;98.80;;;;;;5029255;28;20492;-46
2022/01/23 06:31:49;;;;;;;41.87;21.80;;;5.80;99.20;;;;;;5034457;28;20884;-46
2022/01/23 06:34:17;;;;;;;46.03;22.60;;;5.80;99.20;;;;;;5032164;28;20548;-46
2022/01/23 06:36:45;;;;;;;60.77;22.30;;;5.90;99.20;;;;;;5048443;28;20485;-46
2022/01/23 06:39:13;;;;;;;44.60;21.87;;;5.90;99.10;;;;;;5021746;28;20505;-47
2022/01/23 06:41:40;;;;;;;40.60;21.03;;;6.00;99.00;;;;;;5028477;28;20486;-47
2022/01/23 06:44:10;;;;;;;46.17;21.07;;;6.00;99.00;;;;;;5027963;28;20489;-46
2022/01/23 06:46:38;;;;;;;39.90;19.37;;;6.00;99.00;;;;;;5018058;28;20492;-46
2022/01/23 06:49:05;;;;;;;43.07;21.20;;;6.00;99.00;;;;;;5025496;28;20492;-46
2022/01/23 06:51:32;;;;;;;44.27;20.90;;;6.00;99.00;;;;;;5025704;28;20483;-46
2022/01/23 06:53:58;;;;;;;40.90;21.27;;;6.10;98.90;;;;;;5035157;28;20549;-46
2022/01/23 06:56:25;;;;;;;42.13;21.07;;;6.10;98.90;;;;;;5033359;28;20874;-45
2022/01/23 06:58:52;;;;;;;46.63;21.20;;;6.10;98.80;;;;;;5062570;28;20489;-46
2022/01/23 07:01:20;;;;;;;46.57;22.60;;;6.10;98.80;;;;;;5059634;28;20487;-46
2022/01/23 07:03:47;;;;;;;43.27;20.67;;;6.10;98.70;;;;;;5052507;28;20466;-46
2022/01/23 07:06:13;;;;;;;44.50;23.90;;;6.10;98.90;;;;;;5066033;28;20562;-46
2022/01/23 07:08:40;;;;;;;43.67;21.83;;;6.10;98.90;;;;;;5055926;28;20471;-46
2022/01/23 07:11:07;;;;;;;56.43;24.30;;;6.10;98.80;;;;;;5030572;28;20492;-46
2022/01/23 07:13:33;;;;;;;47.77;21.77;;;6.20;98.80;;;;;;5037763;28;21438;-46
2022/01/23 07:16:02;;;;;;;54.50;24.70;;;6.10;98.80;;;;;;5059027;28;20477;-46
2022/01/23 07:18:30;;;;;;;45.60;22.03;;;6.10;99.00;;;;;;5056929;28;20560;-46
2022/01/23 07:20:57;;;;;;;48.43;22.80;;;6.10;98.90;;;;;;5040445;28;20494;-46
2022/01/23 07:23:24;;;;;;;36.83;21.50;;;6.10;98.90;;;;;;5025807;28;20488;-46
2022/01/23 07:25:52;;;;;;;46.63;23.70;;;6.20;98.90;;;;;;5026711;28;20491;-46
2022/01/23 07:28:22;;;;;;;48.03;23.67;;;6.20;98.80;;;;;;5025432;28;20489;-46
2022/01/23 07:30:51;;;;;;;47.33;23.33;;;6.20;98.80;;;;;;5050118;28;20597;-46
2022/01/23 07:33:18;;;;;;;44.73;24.53;;;6.20;98.80;;;;;;5031432;28;20551;-46
2022/01/23 07:35:46;;;;;;;42.90;22.93;;;6.20;98.80;;;;;;5034896;28;20532;-46
2022/01/23 07:38:16;;;;;;;49.50;23.40;;;6.20;98.80;;;;;;5052248;28;20990;-46
2022/01/23 07:40:44;;;;;;;45.00;24.10;;;6.30;98.80;;;;;;5058172;28;20489;-46
2022/01/23 07:43:10;;;;;;;44.43;22.83;;;6.30;98.80;;;;;;5056319;28;20829;-45
2022/01/23 07:45:37;;;;;;;43.00;24.10;;;6.30;98.70;;;;;;5056358;28;20492;-46
2022/01/23 07:48:05;;;;;;;40.63;22.67;;;6.30;98.80;;;;;;5043666;28;20851;-46
2022/01/23 07:50:32;;;;;;;48.43;23.40;;;6.30;98.80;;;;;;5050636;28;20554;-48
2022/01/23 07:53:00;;;;;;;53.70;23.90;;;6.30;98.70;;;;;;5042375;28;20489;-46
2022/01/23 07:55:26;;;;;;;60.53;22.63;;;6.30;98.70;;;;;;5036593;28;20479;-46
2022/01/23 07:57:53;;;;;;;49.67;24.87;;;6.40;98.70;;;;;;5056797;28;20472;-46
2022/01/23 08:00:22;;;;;;;50.73;24.97;;;6.40;98.70;;;;;;5039325;28;20489;-46
2022/01/23 08:02:49;;;;;;;55.53;27.33;;;6.40;98.60;;;;;;5049005;28;20609;-46
2022/01/23 08:05:15;;;;;;;53.50;25.17;;;6.30;98.70;;;;;;5024477;28;20539;-47
2022/01/23 08:07:42;;;;;;;47.10;23.27;;;6.30;98.80;;;;;;5065758;28;20477;-46
2022/01/23 08:10:11;;;;;;;53.40;25.50;;;6.30;98.80;;;;;;5027393;28;20482;-46
2022/01/23 08:12:39;;;;;;;44.07;22.80;;;6.30;98.70;;;;;;5026698;28;20658;-46
2022/01/23 08:15:06;;;;;;;44.80;24.70;;;6.30;98.70;;;;;;5041028;28;20464;-46
2022/01/23 08:17:33;;;;;;;51.50;25.10;;;6.40;98.80;;;;;;5052838;28;20526;-46
2022/01/23 08:20:01;;;;;;;64.83;27.90;;;6.40;98.80;;;;;;5067479;28;20488;-50
2022/01/23 08:22:30;;;;;;;58.50;25.20;;;6.40;98.80;;;;;;5050640;28;20485;-46
2022/01/23 08:24:58;;;;;;;56.70;27.77;;;6.40;98.80;;;;;;5066605;28;20553;-46
2022/01/23 08:27:26;;;;;;;54.03;28.13;;;6.50;98.80;;;;;;5054688;28;20655;-46
2022/01/23 08:29:53;;;;;;;52.30;26.37;;;6.50;98.80;;;;;;5066712;28;20554;-46
2022/01/23 08:32:20;;;;;;;101.67;43.10;;;6.50;98.80;;;;;;5055445;28;20484;-46
2022/01/23 08:34:47;;;;;;;83.00;36.47;;;6.40;98.70;;;;;;5063376;28;20475;-46
2022/01/23 08:37:15;;;;;;;396.63;212.10;;;6.50;98.80;;;;;;5065217;28;20554;-46
2022/01/23 08:39:42;;;;;;;351.80;181.20;;;6.50;98.90;;;;;;5057640;28;20488;-46
2022/01/23 08:42:11;;;;;;;219.10;130.43;;;6.50;98.90;;;;;;5054272;28;20492;-46
2022/01/23 08:44:40;;;;;;;138.20;78.83;;;6.40;98.80;;;;;;5059714;28;20500;-46
2022/01/23 08:47:07;;;;;;;77.03;41.97;;;6.50;98.90;;;;;;5054616;28;20501;-46
2022/01/23 08:49:36;;;;;;;460.93;321.43;;;6.50;98.90;;;;;;5058608;28;20483;-46
2022/01/23 08:52:04;;;;;;;345.70;221.90;;;6.50;99.00;;;;;;5058319;28;20788;-46
2022/01/23 08:54:30;;;;;;;122.40;75.90;;;6.50;99.00;;;;;;5046806;28;20507;-46
2022/01/23 08:56:57;;;;;;;97.27;55.63;;;6.40;99.00;;;;;;5065322;28;20485;-46
2022/01/23 08:59:24;;;;;;;59.10;33.30;;;6.40;99.10;;;;;;5062659;28;20538;-46
2022/01/23 09:01:52;;;;;;;59.17;29.00;;;6.50;99.10;;;;;;5061716;28;20504;-46
2022/01/23 09:04:19;;;;;;;77.30;40.60;;;6.50;99.10;;;;;;5050195;28;20495;-46
2022/01/23 09:06:47;;;;;;;140.23;77.67;;;6.50;99.20;;;;;;5062317;28;20541;-46
2022/01/23 09:09:18;;;;;;;112.27;58.43;;;6.60;99.20;;;;;;5056095;28;20484;-49
2022/01/23 09:11:57;;;;;;;93.47;46.63;;;6.60;99.10;;;;;;5056593;28;20591;-46
2022/01/23 09:14:23;;;;;;;63.07;31.23;;;6.60;99.10;;;;;;5048513;28;20486;-46
2022/01/23 09:16:53;;;;;;;57.30;31.20;;;6.70;99.10;;;;;;5004563;28;20502;-46
2022/01/23 09:19:22;;;;;;;57.77;28.50;;;6.70;99.00;;;;;;5030308;28;20503;-46
2022/01/23 09:21:50;;;;;;;53.13;26.37;;;6.70;99.10;;;;;;5035441;28;21347;-46
2022/01/23 09:24:18;;;;;;;56.53;28.97;;;6.80;99.10;;;;;;5025507;28;21013;-46
2022/01/23 09:26:51;;;;;;;58.80;27.67;;;6.90;99.10;;;;;;5026819;28;20858;-46
2022/01/23 09:29:28;;;;;;;53.93;28.33;;;6.90;99.00;;;;;;5039929;28;20484;-46
2022/01/23 09:31:56;;;;;;;45.63;26.80;;;6.90;98.90;;;;;;5040825;28;20614;-46
2022/01/23 09:34:25;;;;;;;54.27;26.63;;;6.90;99.00;;;;;;5047098;28;20529;-46
2022/01/23 09:36:54;;;;;;;65.53;32.83;;;7.00;99.10;;;;;;5058791;28;20488;-46
2022/01/23 09:39:21;;;;;;;48.60;27.20;;;7.00;99.10;;;;;;5047032;28;20720;-46
2022/01/23 09:41:50;;;;;;;58.37;28.47;;;7.10;99.10;;;;;;5020641;28;20536;-49
2022/01/23 09:44:19;;;;;;;54.43;27.10;;;7.20;99.10;;;;;;5024348;28;20540;-46
2022/01/23 09:46:47;;;;;;;56.57;29.30;;;7.20;99.00;;;;;;5025910;28;20888;-46
2022/01/23 09:49:17;;;;;;;58.37;31.77;;;7.30;99.20;;;;;;5004147;28;20509;-54
2022/01/23 09:51:46;;;;;;;50.27;25.50;;;7.30;99.10;;;;;;5039678;28;20511;-46
2022/01/23 09:54:15;;;;;;;61.83;28.67;;;7.40;99.10;;;;;;5020108;28;20536;-46
2022/01/23 09:56:43;;;;;;;45.43;25.80;;;7.30;98.70;;;;;;5024039;28;20888;-46
2022/01/23 09:59:11;;;;;;;60.03;30.20;;;7.40;98.70;;;;;;5021920;28;20494;-46
2022/01/23 10:01:40;;;;;;;63.20;24.47;;;7.30;98.70;;;;;;5016941;28;20494;-46
2022/01/23 10:04:07;;;;;;;55.90;30.20;;;7.40;98.80;;;;;;5026247;28;20529;-46
2022/01/23 10:06:36;;;;;;;63.30;26.93;;;7.30;98.50;;;;;;5035545;28;20527;-46
2022/01/23 10:09:06;;;;;;;56.73;28.17;;;7.30;98.50;;;;;;5043484;28;20896;-46
2022/01/23 10:11:38;;;;;;;49.20;24.03;;;7.40;98.60;;;;;;5018707;28;20502;-46
2022/01/23 10:14:05;;;;;;;59.43;27.77;;;7.40;98.40;;;;;;5035237;28;20976;-45
2022/01/23 10:16:33;;;;;;;49.07;24.53;;;7.40;98.40;;;;;;5023250;28;20491;-46
2022/01/23 10:19:01;;;;;;;51.47;24.90;;;7.40;98.50;;;;;;5035372;28;21307;-46
2022/01/23 10:21:29;;;;;;;55.30;24.90;;;7.40;98.60;;;;;;5033471;28;20555;-46
2022/01/23 10:23:58;;;;;;;49.50;25.07;;;7.50;98.40;;;;;;5035102;28;20486;-45
2022/01/23 10:26:45;;;;;;;50.63;24.47;;;7.50;98.40;;;;;;5027658;28;20956;-46
2022/01/23 10:29:21;;;;;;;58.23;26.97;;;7.60;98.60;;;;;;5059519;28;20922;-46
2022/01/23 10:32:21;;;;;;;60.70;26.10;;;7.60;98.00;;;;;;5058436;28;20480;-46
2022/01/23 10:34:51;;;;;;;47.90;24.17;;;7.50;97.90;;;;;;4975304;28;20840;-46
2022/01/23 10:37:29;;;;;;;42.37;21.13;;;7.60;98.20;;;;;;5031889;28;20940;-46
2022/01/23 10:39:59;;;;;;;49.27;26.03;;;7.60;98.10;;;;;;5062266;28;20482;-46
2022/01/23 10:42:51;;;;;;;51.10;23.63;;;7.70;98.10;;;;;;5052499;28;20563;-46
2022/01/23 10:48:40;;;;;;;40.17;21.30;;;7.70;97.90;;;;;;5054779;28;20509;-45
2022/01/23 10:51:17;;;;;;;67.73;28.43;;;7.70;97.80;;;;;;5039175;28;20509;-46
2022/01/23 10:54:08;;;;;;;42.83;20.63;;;7.80;97.60;;;;;;5047954;28;20491;-46
2022/01/23 10:56:40;;;;;;;67.93;24.60;;;7.80;97.60;;;;;;5052114;28;20971;-46
2022/01/23 10:59:09;;;;;;;98.10;30.90;;;7.80;97.30;;;;;;5051654;28;20491;-46
2022/01/23 11:01:37;;;;;;;75.17;26.10;;;7.80;97.50;;;;;;5056428;28;20579;-46
2022/01/23 11:04:05;;;;;;;537.77;130.97;;;;;;;;;;5059518;28;20538;-45
2022/01/23 11:06:32;;;;;;;148.00;28.00;;;;;;;;;;5054761;28;20493;-46
2022/01/23 11:09:09;;;;;;;239.53;60.60;;;;;;;;;;5058836;28;20486;-46
2022/01/23 11:11:46;;;;;;;282.00;79.77;;;;;;;;;;5053303;28;20495;-46
2022/01/23 11:19:46;;;;;;;54.93;23.63;;;7.80;97.30;;;;;;5058360;28;20511;-46
2022/01/23 11:22:16;;;;;;;48.93;22.40;;;7.80;97.20;;;;;;5047320;28;20816;-46
2022/01/23 11:24:47;;;;;;;38.63;22.50;;;7.80;97.20;;;;;;5051533;28;21949;-46
2022/01/23 11:27:16;;;;;;;47.87;25.80;;;7.80;97.30;;;;;;5053635;28;20882;-46
2022/01/23 11:30:02;;;;;;;40.07;19.97;;;7.80;97.10;;;;;;5056818;28;20623;-46
2022/01/23 11:32:36;;;;;;;37.93;20.13;;;7.90;97.20;;;;;;5046848;28;20499;-46
2022/01/23 11:35:08;;;;;;;38.47;21.50;;;7.90;97.10;;;;;;5046974;28;20810;-45
2022/01/23 11:37:39;;;;;;;35.90;20.53;;;8.00;97.00;;;;;;5040617;28;20484;-47
2022/01/23 11:40:22;;;;;;;39.87;21.33;;;8.00;96.80;;;;;;5055403;28;20482;-46
2022/01/23 11:54:08;;;;;;;38.50;20.90;;;8.10;96.50;;;;;;5044588;28;20485;-46
2022/01/23 11:56:46;;;;;;;30.70;17.33;;;8.10;96.20;;;;;;5056911;28;21222;-46
2022/01/23 11:59:23;;;;;;;43.80;17.00;;;8.00;96.20;;;;;;5052495;28;20487;-46
2022/01/23 12:02:20;;;;;;;28.97;18.40;;;8.00;96.20;;;;;;5041074;28;20485;-46
2022/01/23 12:05:20;;;;;;;32.23;17.13;;;7.90;96.20;;;;;;5045653;28;20478;-49
2022/01/23 12:08:32;;;;;;;23.33;14.00;;;8.00;96.40;;;;;;5049590;28;20523;-47
2022/01/23 12:17:08;;;;;;;24.97;15.83;;;8.00;96.20;;;;;;5028989;28;20494;-46
2022/01/23 12:19:42;;;;;;;26.20;15.33;;;8.00;96.40;;;;;;5030782;28;20485;-46
2022/01/23 12:22:25;;;;;;;23.87;15.43;;;8.00;96.00;;;;;;5028236;28;20489;-47
2022/01/23 12:24:54;;;;;;;21.97;14.00;;;8.00;96.00;;;;;;5016892;28;20540;-47
2022/01/23 12:27:26;;;;;;;26.53;15.07;;;8.00;96.00;;;;;;5015721;28;20483;-46
2022/01/23 12:29:55;;;;;;;27.43;15.60;;;8.00;96.10;;;;;;5064120;28;21037;-46
2022/01/23 12:32:26;;;;;;;34.33;16.70;;;8.00;96.10;;;;;;5044311;28;20988;-46
2022/01/23 12:34:56;;;;;;;34.43;15.20;;;8.00;95.90;;;;;;5063132;28;20511;-46
2022/01/23 12:37:22;;;;;;;31.57;16.13;;;8.00;95.90;;;;;;5043471;28;20522;-46
2022/01/23 12:40:23;;;;;;;26.20;14.70;;;8.10;95.70;;;;;;5067824;28;20481;-46
2022/01/23 12:43:08;;;;;;;26.73;15.87;;;8.00;95.60;;;;;;5020630;28;20484;-46
2022/01/23 12:45:53;;;;;;;33.10;17.53;;;8.00;96.00;;;;;;5026548;28;20490;-46
2022/01/23 12:48:39;;;;;;;33.70;17.17;;;8.10;96.00;;;;;;5054144;28;20497;-46
2022/01/23 12:51:08;;;;;;;46.33;17.87;;;8.10;95.90;;;;;;5033686;28;20478;-51
2022/01/23 12:53:37;;;;;;;29.77;16.27;;;8.10;95.80;;;;;;5026312;28;20475;-46
2022/01/23 12:56:06;;;;;;;94.97;22.13;;;;;;;;;;5039149;28;20492;-46
2022/01/23 12:58:33;;;;;;;30.60;15.63;;;8.20;95.70;;;;;;5055534;28;20524;-46
2022/01/23 13:01:04;;;;;;;38.50;18.50;;;8.20;95.90;;;;;;5053904;28;20491;-46
2022/01/23 13:03:31;;;;;;;46.50;17.83;;;8.20;95.60;;;;;;5050341;28;20551;-46
2022/01/23 13:05:58;;;;;;;111.63;20.57;;;;;;;;;;5035297;28;20535;-46
2022/01/23 13:08:28;;;;;;;42.40;16.53;;;8.30;95.60;;;;;;5059802;28;21009;-46
2022/01/23 13:11:43;;;;;;;36.90;18.97;;;8.20;95.50;;;;;;5040485;28;20496;-46
2022/01/23 13:13:57;;;;;;;33.23;15.07;;;8.20;95.40;;;;;;5029279;28;20471;-47
2022/01/23 13:16:34;;;;;;;32.40;16.90;;;8.10;95.60;;;;;;5045280;28;20478;-46
2022/01/23 13:28:01;;;;;;;81.67;31.83;;;8.20;95.00;;;;;;5047120;28;20886;-53
2022/01/23 13:30:19;;;;;;;60.20;22.77;;;8.10;95.20;;;;;;5057860;28;20477;-46
2022/01/23 13:32:49;;;;;;;60.23;24.00;;;8.10;95.10;;;;;;5059260;28;20645;-46
2022/01/23 13:35:17;;;;;;;84.43;23.47;;;8.10;95.20;;;;;;5047459;28;20474;-47
2022/01/23 13:37:46;;;;;;;65.90;18.10;;;8.10;95.40;;;;;;5055707;28;20828;-46
2022/01/23 13:40:15;;;;;;;102.00;26.57;;;8.10;95.80;;;;;;5052412;28;20477;-46
2022/01/23 13:48:53;;;;;;;95.20;23.97;;;8.30;95.90;;;;;;5057340;28;20757;-47
2022/01/23 13:51:32;;;;;;;367.40;73.83;;;;;;;;;;5050127;28;20488;-47
2022/01/23 13:57:37;;;;;;;214.10;26.93;;;;;;;;;;5055009;28;20478;-46
2022/01/23 13:59:57;;;;;;;329.40;91.43;;;;;;;;;;5040182;28;20615;-47
2022/01/23 14:02:25;;;;;;;110.47;21.13;;;;;;;;;;5041965;28;21658;-47
2022/01/23 14:04:56;;;;;;;77.10;19.77;;;8.20;95.40;;;;;;5038150;28;20549;-48
2022/01/23 14:07:25;;;;;;;64.97;21.13;;;8.10;95.20;;;;;;5061188;28;20602;-47
2022/01/23 14:09:53;;;;;;;55.43;19.70;;;8.10;95.20;;;;;;5059178;28;20497;-47
2022/01/23 14:12:21;;;;;;;69.63;20.67;;;8.10;95.40;;;;;;5042656;28;20487;-47
2022/01/23 14:14:54;;;;;;;53.30;19.10;;;8.10;95.30;;;;;;5059567;28;21344;-46
2022/01/23 14:17:22;;;;;;;51.03;17.80;;;8.10;95.30;;;;;;5062308;28;20524;-47
2022/01/23 14:20:05;;;;;;;39.60;15.23;;;8.00;95.10;;;;;;5068441;28;20842;-47
2022/01/23 14:22:33;;;;;;;48.43;17.50;;;8.00;95.10;;;;;;5052093;28;20500;-46
2022/01/23 14:25:11;;;;;;;45.23;18.20;;;8.00;95.10;;;;;;5049341;28;20496;-47
2022/01/23 14:27:39;;;;;;;24.03;15.07;;;7.90;94.60;;;;;;5047750;28;20509;-46
2022/01/23 14:30:08;;;;;;;22.47;14.10;;;;;;;;;;5060708;28;20549;-47
2022/01/23 14:32:42;;;;;;;18.10;10.57;;;7.90;94.20;;;;;;5049473;28;20559;-47
2022/01/23 14:35:13;;;;;;;21.53;14.83;;;7.90;93.90;;;;;;5045218;28;20604;-46
2022/01/23 14:37:42;;;;;;;23.77;11.77;;;7.90;94.40;;;;;;5038700;28;20497;-47
2022/01/23 14:40:16;;;;;;;24.17;15.43;;;7.90;94.20;;;;;;5059060;28;20481;-47
2022/01/23 14:42:58;;;;;;;17.27;11.27;;;7.80;94.10;;;;;;5031301;28;20515;-47
2022/01/23 14:45:25;;;;;;;23.43;14.20;;;7.80;94.00;;;;;;5038866;28;20486;-47
2022/01/23 14:47:52;;;;;;;17.43;12.40;;;7.80;94.00;;;;;;5050546;28;20482;-47
2022/01/23 14:50:25;;;;;;;25.60;14.00;;;7.90;94.50;;;;;;5047078;28;20470;-48
2022/01/23 14:52:52;;;;;;;27.10;15.37;;;7.90;93.80;;;;;;5042361;28;20597;-47
2022/01/23 14:55:20;;;;;;;24.87;15.67;;;7.90;94.20;;;;;;5055365;28;20483;-47
2022/01/23 14:57:47;;;;;;;31.33;15.80;;;7.90;94.20;;;;;;5044600;28;20570;-47
2022/01/23 15:00:16;;;;;;;46.23;25.40;;;8.00;94.40;;;;;;5047638;28;20857;-51
2022/01/23 15:02:44;;;;;;;23.40;15.73;;;8.10;94.10;;;;;;5039259;28;20502;-47
2022/01/23 15:05:11;;;;;;;27.80;18.53;;;8.10;94.20;;;;;;5045658;28;20537;-46
2022/01/23 15:07:41;;;;;;;15.90;9.33;;;8.10;93.90;;;;;;5067801;28;20539;-44
2022/01/23 15:10:10;;;;;;;36.83;12.20;;;8.00;93.80;;;;;;5058482;28;20486;-47
2022/01/23 15:12:37;;;;;;;15.50;10.40;;;8.00;93.50;;;;;;5056113;28;20489;-47
2022/01/23 15:15:05;;;;;;;13.93;10.90;;;8.00;93.60;;;;;;5043309;28;21038;-46
2022/01/23 15:17:32;;;;;;;15.47;10.23;;;8.00;93.40;;;;;;5029839;28;20478;-46
2022/01/23 15:19:58;;;;;;;17.10;11.93;;;8.00;93.40;;;;;;5051167;28;22097;-47
2022/01/23 15:22:25;;;;;;;17.73;12.10;;;7.80;93.50;;;;;;5029637;28;21285;-47
2022/01/23 15:24:53;;;;;;;20.13;10.50;;;8.00;93.90;;;;;;5031459;28;20502;-47
2022/01/23 15:27:20;;;;;;;17.07;10.00;;;8.00;93.60;;;;;;5032962;28;20484;-47
2022/01/23 15:29:47;;;;;;;15.90;10.40;;;7.90;93.60;;;;;;5034487;28;20488;-47
2022/01/23 15:32:14;;;;;;;31.63;11.30;;;8.00;93.80;;;;;;5041051;28;21392;-50